Time;durP1;ratioP1;P1;durP2;ratioP2;P2;SDS_P1;SDS_P2;PMS_P1;PMS_P2;Temp;Humidity;BMP_temperature;BMP_pressure;BME280_temperature;BME280_humidity;BME280_pressure;Samples;Min_cycle;Max_cycle;Signal;HPM_P1;HPM_P2
2022/07/30 00:00:28;;;;;;;8.30;6.10;;;;;;;;;;5046033;28;20194;-74
2022/07/30 00:02:55;;;;;;;9.30;6.33;;;;;;;;;;5046307;28;20219;-73
2022/07/30 00:05:22;;;;;;;10.30;5.80;;;;;;;;;;5044997;28;20326;-74
2022/07/30 00:07:49;;;;;;;10.07;6.23;;;;;;;;;;5049408;28;20205;-74
2022/07/30 00:10:16;;;;;;;10.53;6.67;;;;;;;;;;5046701;28;20208;-74
2022/07/30 00:12:44;;;;;;;11.60;6.07;;;;;;;;;;5045599;28;20214;-73
2022/07/30 00:15:11;;;;;;;9.70;6.13;;;;;;;;;;5042066;28;20203;-74
2022/07/30 00:17:39;;;;;;;10.10;5.57;;;;;;;;;;5045898;28;20681;-74
2022/07/30 00:20:07;;;;;;;7.67;6.00;;;;;;;;;;5043624;28;20210;-74
2022/07/30 00:22:34;;;;;;;8.40;5.40;;;;;;;;;;5044083;28;20275;-74
2022/07/30 00:25:01;;;;;;;9.27;6.30;;;;;;;;;;5043694;28;20578;-74
2022/07/30 00:27:30;;;;;;;11.30;5.73;;;;;;;;;;5044637;28;20207;-73
2022/07/30 00:29:57;;;;;;;10.60;5.53;;;;;;;;;;5044357;28;20304;-74
2022/07/30 00:32:24;;;;;;;7.73;5.80;;;;;;;;;;5045222;28;20213;-73
2022/07/30 00:34:53;;;;;;;10.00;5.57;;;;;;;;;;5043286;28;20604;-74
2022/07/30 00:37:20;;;;;;;8.63;5.97;;;;;;;;;;5044583;28;20299;-73
2022/07/30 00:39:47;;;;;;;9.07;5.97;;;;;;;;;;5044291;28;20212;-74
2022/07/30 00:42:16;;;;;;;8.13;5.63;;;;;;;;;;5041128;28;20226;-74
2022/07/30 00:44:43;;;;;;;9.40;5.90;;;;;;;;;;5038733;28;20204;-73
2022/07/30 00:47:11;;;;;;;10.73;6.33;;;;;;;;;;5048232;28;20223;-73
2022/07/30 00:49:38;;;;;;;13.60;5.93;;;;;;;;;;5044554;28;20218;-73
2022/07/30 00:52:06;;;;;;;8.63;5.80;;;;;;;;;;5042630;28;20225;-74
2022/07/30 00:54:33;;;;;;;9.50;5.90;;;;;;;;;;5041200;28;20207;-74
2022/07/30 00:57:01;;;;;;;8.17;5.90;;;;;;;;;;5043325;28;20603;-74
2022/07/30 00:59:28;;;;;;;11.87;5.93;;;;;;;;;;5045761;28;20218;-73
2022/07/30 01:01:55;;;;;;;13.23;5.87;;;;;;;;;;5043600;28;20230;-73
2022/07/30 01:04:22;;;;;;;12.57;6.27;;;;;;;;;;5043376;28;20604;-74
2022/07/30 01:06:49;;;;;;;10.67;6.10;;;;;;;;;;5044640;28;20219;-73
2022/07/30 01:09:18;;;;;;;9.63;5.73;;;;;;;;;;5045132;28;20286;-73
2022/07/30 01:11:45;;;;;;;7.93;5.60;;;;;;;;;;5043659;28;20211;-73
2022/07/30 01:14:13;;;;;;;9.30;5.80;;;;;;;;;;5041915;28;20254;-73
2022/07/30 01:16:42;;;;;;;8.97;6.13;;;;;;;;;;5043065;28;20230;-73
2022/07/30 01:22:01;;;;;;;8.10;5.67;;;;;;;;;;5041353;28;20815;-73
2022/07/30 01:24:31;;;;;;;7.83;5.60;;;;;;;;;;5045987;28;20206;-73
2022/07/30 01:27:01;;;;;;;8.67;5.87;;;;;;;;;;5043567;28;20246;-73
2022/07/30 01:29:29;;;;;;;9.93;5.57;;;;;;;;;;5043484;28;20214;-73
2022/07/30 01:31:58;;;;;;;9.50;5.70;;;;;;;;;;5044345;28;20867;-73
2022/07/30 01:34:28;;;;;;;9.10;5.77;;;;;;;;;;5036131;28;20231;-72
2022/07/30 01:36:56;;;;;;;15.73;6.70;;;;;;;;;;5038708;28;20315;-73
2022/07/30 01:39:25;;;;;;;9.17;6.50;;;;;;;;;;5042413;28;20210;-73
2022/07/30 01:41:53;;;;;;;9.43;6.27;;;;;;;;;;5042943;28;20211;-74
2022/07/30 01:44:22;;;;;;;9.73;6.37;;;;;;;;;;5041158;28;20214;-74
2022/07/30 01:46:49;;;;;;;12.17;6.10;;;;;;;;;;5040890;28;20230;-74
2022/07/30 01:49:18;;;;;;;8.77;6.20;;;;;;;;;;5042098;28;20203;-74
2022/07/30 01:51:46;;;;;;;8.37;5.83;;;;;;;;;;5041424;28;20654;-73
2022/07/30 01:54:13;;;;;;;9.37;6.20;;;;;;;;;;5043158;28;20211;-73
2022/07/30 01:56:41;;;;;;;10.93;6.10;;;;;;;;;;5045520;28;20227;-73
2022/07/30 01:59:09;;;;;;;8.10;5.90;;;;;;;;;;5040402;28;20317;-73
2022/07/30 02:01:38;;;;;;;10.20;5.50;;;;;;;;;;5044239;28;20229;-73
2022/07/30 02:04:05;;;;;;;9.27;5.73;;;;;;;;;;5044383;28;20242;-74
2022/07/30 02:06:34;;;;;;;9.20;6.03;;;;;;;;;;5043420;28;20318;-74
2022/07/30 02:09:15;;;;;;;9.50;5.60;;;;;;;;;;5043377;28;20225;-73
2022/07/30 02:14:31;;;;;;;7.90;5.67;;;;;;;;;;5043197;28;20282;-74
2022/07/30 02:17:00;;;;;;;7.30;5.40;;;;;;;;;;5045232;28;20227;-74
2022/07/30 02:19:33;;;;;;;8.07;6.03;;;;;;;;;;5041872;28;20210;-74
2022/07/30 02:22:04;;;;;;;11.37;5.70;;;;;;;;;;5041139;28;20298;-74
2022/07/30 02:24:31;;;;;;;9.40;5.63;;;;;;;;;;5041565;28;20266;-74
2022/07/30 02:27:09;;;;;;;12.77;5.90;;;;;;;;;;5039203;28;20238;-73
2022/07/30 02:29:37;;;;;;;15.77;6.00;;;;;;;;;;5041022;28;20206;-74
2022/07/30 02:32:08;;;;;;;8.23;5.63;;;;;;;;;;5039891;28;20298;-74
2022/07/30 02:34:37;;;;;;;9.13;5.37;;;;;;;;;;5044033;28;20264;-73
2022/07/30 02:37:05;;;;;;;11.17;5.23;;;;;;;;;;5045133;28;20233;-73
2022/07/30 02:39:34;;;;;;;10.43;5.47;;;;;;;;;;5045483;28;20219;-74
2022/07/30 02:42:01;;;;;;;7.33;5.40;;;;;;;;;;5043291;28;20291;-73
2022/07/30 02:44:29;;;;;;;10.17;5.47;;;;;;;;;;5041005;28;20204;-74
2022/07/30 02:46:57;;;;;;;11.23;5.60;;;;;;;;;;5044487;28;20222;-73
2022/07/30 02:49:26;;;;;;;6.90;5.20;;;;;;;;;;5042461;28;20195;-74
2022/07/30 02:51:54;;;;;;;8.70;5.40;;;;;;;;;;5042204;28;20203;-73
2022/07/30 02:54:21;;;;;;;11.50;6.27;;;;;;;;;;5041772;28;20207;-74
2022/07/30 02:56:49;;;;;;;8.27;5.40;;;;;;;;;;5044121;28;20280;-73
2022/07/30 02:59:18;;;;;;;7.80;5.83;;;;;;;;;;5042080;28;20200;-74
2022/07/30 03:01:45;;;;;;;9.27;5.87;;;;;;;;;;5045776;28;20231;-74
2022/07/30 03:04:13;;;;;;;11.73;6.10;;;;;;;;;;5045153;28;20228;-74
2022/07/30 03:06:43;;;;;;;9.57;5.83;;;;;;;;;;5045996;28;20321;-74
2022/07/30 03:09:10;;;;;;;8.63;5.87;;;;;;;;;;5042922;28;20213;-73
2022/07/30 03:11:39;;;;;;;6.33;5.17;;;;;;;;;;5042516;28;20211;-73
2022/07/30 03:14:07;;;;;;;8.70;5.40;;;;;;;;;;5043623;28;20222;-72
2022/07/30 03:16:35;;;;;;;8.93;5.40;;;;;;;;;;5044972;28;20219;-74
2022/07/30 03:19:02;;;;;;;12.90;5.60;;;;;;;;;;5045851;28;20243;-72
2022/07/30 03:21:32;;;;;;;9.60;6.03;;;;;;;;;;5049754;28;20216;-74
2022/07/30 03:24:02;;;;;;;8.10;5.77;;;;;;;;;;5048349;28;20665;-74
2022/07/30 03:26:30;;;;;;;7.77;5.60;;;;;;;;;;5039036;28;20238;-74
2022/07/30 03:28:57;;;;;;;9.30;6.43;;;;;;;;;;5045832;28;20290;-72
2022/07/30 03:31:25;;;;;;;7.83;5.63;;;;;;;;;;5043469;28;20217;-73
2022/07/30 03:33:52;;;;;;;7.40;5.70;;;;;;;;;;5042447;28;20200;-74
2022/07/30 03:36:20;;;;;;;7.20;5.50;;;;;;;;;;5045204;28;20721;-73
2022/07/30 03:38:47;;;;;;;7.80;5.67;;;;;;;;;;5043139;28;20208;-74
2022/07/30 03:41:17;;;;;;;9.33;6.13;;;;;;;;;;5042989;28;20204;-74
2022/07/30 03:43:44;;;;;;;7.27;5.10;;;;;;;;;;5043894;28;20246;-74
2022/07/30 03:46:12;;;;;;;8.07;5.50;;;;;;;;;;5045787;28;20901;-73
2022/07/30 03:48:40;;;;;;;9.50;5.73;;;;;;;;;;5044617;28;20229;-74
2022/07/30 03:51:09;;;;;;;9.93;5.90;;;;;;;;;;5043080;28;20203;-72
2022/07/30 03:53:36;;;;;;;8.97;5.70;;;;;;;;;;5047816;28;20195;-73
2022/07/30 03:56:03;;;;;;;14.43;5.73;;;;;;;;;;5043677;28;20313;-73
2022/07/30 03:58:32;;;;;;;9.93;5.93;;;;;;;;;;5046103;28;20286;-73
2022/07/30 04:01:11;;;;;;;10.27;5.67;;;;;;;;;;5045396;28;20218;-74
2022/07/30 04:03:39;;;;;;;12.63;5.90;;;;;;;;;;5040307;28;20233;-74
2022/07/30 04:06:06;;;;;;;13.73;6.00;;;;;;;;;;5040199;28;20237;-73
2022/07/30 04:08:33;;;;;;;9.30;5.90;;;;;;;;;;5046215;28;20224;-74
2022/07/30 04:11:00;;;;;;;9.63;5.90;;;;;;;;;;5043842;28;20210;-74
2022/07/30 04:13:28;;;;;;;7.80;5.57;;;;;;;;;;5041838;28;20203;-72
2022/07/30 04:15:59;;;;;;;13.60;6.53;;;;;;;;;;5043159;28;20223;-74
2022/07/30 04:18:27;;;;;;;8.23;6.00;;;;;;;;;;5043765;28;20214;-74
2022/07/30 04:20:55;;;;;;;10.80;6.00;;;;;;;;;;5044173;28;20199;-73
2022/07/30 04:23:22;;;;;;;12.80;5.77;;;;;;;;;;5041636;28;20233;-73
2022/07/30 04:25:50;;;;;;;9.03;5.57;;;;;;;;;;5046279;28;20231;-74
2022/07/30 04:28:18;;;;;;;7.17;5.57;;;;;;;;;;5043910;28;20200;-74
2022/07/30 04:30:46;;;;;;;11.50;5.73;;;;;;;;;;5047345;28;20211;-74
2022/07/30 04:33:15;;;;;;;8.57;6.13;;;;;;;;;;5045504;28;20210;-74
2022/07/30 04:35:42;;;;;;;9.70;6.17;;;;;;;;;;5043392;28;20595;-73
2022/07/30 04:38:12;;;;;;;8.87;5.70;;;;;;;;;;5044171;28;20316;-74
2022/07/30 04:40:39;;;;;;;9.30;5.83;;;;;;;;;;5041555;28;20654;-73
2022/07/30 04:43:07;;;;;;;8.47;5.47;;;;;;;;;;5043435;28;20229;-72
2022/07/30 04:45:34;;;;;;;8.80;5.80;;;;;;;;;;5044385;28;20314;-74
2022/07/30 04:48:01;;;;;;;7.60;5.60;;;;;;;;;;5042422;28;20294;-73
2022/07/30 04:50:30;;;;;;;9.17;6.00;;;;;;;;;;5042465;28;20286;-74
2022/07/30 04:52:57;;;;;;;10.50;5.30;;;;;;;;;;5043527;28;20638;-73
2022/07/30 04:55:25;;;;;;;11.20;6.67;;;;;;;;;;5038587;28;20223;-74
2022/07/30 04:57:53;;;;;;;7.70;5.33;;;;;;;;;;5043088;28;20227;-74
2022/07/30 05:00:20;;;;;;;8.27;5.73;;;;;;;;;;5045942;28;20207;-74
2022/07/30 05:02:49;;;;;;;10.97;5.37;;;;;;;;;;5045924;28;20249;-74
2022/07/30 05:05:17;;;;;;;7.73;5.03;;;;;;;;;;5042649;28;20227;-73
2022/07/30 05:07:46;;;;;;;7.63;5.53;;;;;;;;;;5040768;28;20207;-73
2022/07/30 05:10:14;;;;;;;8.73;5.20;;;;;;;;;;5045410;28;20213;-74
2022/07/30 05:12:41;;;;;;;9.13;5.83;;;;;;;;;;5043506;28;20700;-71
2022/07/30 05:15:10;;;;;;;8.97;5.30;;;;;;;;;;5041339;28;20195;-72
2022/07/30 05:17:37;;;;;;;10.17;5.43;;;;;;;;;;5043048;28;20260;-71
2022/07/30 05:20:05;;;;;;;8.43;5.43;;;;;;;;;;5043243;28;20692;-72
2022/07/30 05:22:32;;;;;;;10.53;5.27;;;;;;;;;;5035942;28;20654;-72
2022/07/30 05:25:01;;;;;;;7.83;5.00;;;;;;;;;;5040022;28;20231;-73
2022/07/30 05:27:28;;;;;;;8.60;5.37;;;;;;;;;;5038362;28;20204;-72
2022/07/30 05:29:55;;;;;;;8.77;4.87;;;;;;;;;;5043165;28;20208;-74
2022/07/30 05:32:22;;;;;;;7.73;4.50;;;;;;;;;;5041313;28;20289;-73
2022/07/30 05:34:49;;;;;;;6.03;4.40;;;;;;;;;;5039402;28;20638;-74
2022/07/30 05:37:17;;;;;;;5.73;4.50;;;;;;;;;;5041237;28;20224;-73
2022/07/30 05:39:44;;;;;;;10.50;4.70;;;;;;;;;;5041630;28;20207;-73
2022/07/30 05:42:14;;;;;;;8.70;5.10;;;;;;;;;;5042586;28;20211;-73
2022/07/30 05:44:41;;;;;;;5.87;4.50;;;;;;;;;;5042730;28;20234;-73
2022/07/30 05:47:08;;;;;;;7.77;4.50;;;;;;;;;;5043560;28;20229;-73
2022/07/30 05:49:36;;;;;;;6.37;4.53;;;;;;;;;;5041007;28;20282;-74
2022/07/30 05:52:03;;;;;;;8.90;4.33;;;;;;;;;;5041453;28;20213;-73
2022/07/30 05:54:30;;;;;;;7.40;4.40;;;;;;;;;;5042883;28;20207;-74
2022/07/30 05:56:57;;;;;;;6.90;3.70;;;;;;;;;;5040737;28;20219;-73
2022/07/30 05:59:25;;;;;;;5.23;3.50;;;;;;;;;;5040470;28;20199;-74
2022/07/30 06:01:53;;;;;;;5.00;3.77;;;;;;;;;;5041808;28;20211;-74
2022/07/30 06:04:20;;;;;;;4.47;3.47;;;;;;;;;;5043310;28;20304;-74
2022/07/30 06:06:47;;;;;;;5.10;3.40;;;;;;;;;;5039816;28;20227;-73
2022/07/30 06:09:14;;;;;;;5.57;3.80;;;;;;;;;;5039841;28;20225;-73
2022/07/30 06:11:42;;;;;;;7.00;3.70;;;;;;;;;;5040982;28;20211;-73
2022/07/30 06:14:09;;;;;;;7.47;3.63;;;;;;;;;;5042358;28;20214;-73
2022/07/30 06:16:37;;;;;;;7.13;3.73;;;;;;;;;;5040895;28;20219;-73
2022/07/30 06:19:04;;;;;;;5.13;3.37;;;;;;;;;;5045298;28;20208;-73
2022/07/30 06:21:32;;;;;;;9.33;3.67;;;;;;;;;;5044242;28;20286;-74
2022/07/30 06:23:59;;;;;;;6.37;3.70;;;;;;;;;;5040506;28;20662;-73
2022/07/30 06:26:26;;;;;;;6.70;3.57;;;;;;;;;;5043022;28;20648;-73
2022/07/30 06:28:53;;;;;;;6.87;3.53;;;;;;;;;;5043353;28;20307;-73
2022/07/30 06:31:20;;;;;;;13.73;3.73;;;;;;;;;;5044963;28;20204;-73
2022/07/30 06:33:49;;;;;;;5.07;3.50;;;;;;;;;;5044025;28;20206;-74
2022/07/30 06:36:16;;;;;;;8.07;3.57;;;;;;;;;;5045907;28;20318;-74
2022/07/30 06:38:43;;;;;;;4.67;3.60;;;;;;;;;;5045107;28;20579;-73
2022/07/30 06:41:11;;;;;;;7.83;4.03;;;;;;;;;;5048597;28;20217;-72
2022/07/30 06:43:38;;;;;;;9.60;4.00;;;;;;;;;;5044458;28;20229;-73
2022/07/30 06:46:05;;;;;;;11.43;4.90;;;;;;;;;;5046624;28;20319;-72
2022/07/30 06:48:32;;;;;;;7.43;4.40;;;;;;;;;;5045251;28;20738;-73
2022/07/30 06:51:01;;;;;;;7.13;3.90;;;;;;;;;;5043142;28;20210;-73
2022/07/30 06:53:28;;;;;;;8.37;4.83;;;;;;;;;;5046244;28;20209;-73
2022/07/30 06:55:56;;;;;;;6.73;4.00;;;;;;;;;;5043247;28;20606;-73
2022/07/30 06:58:23;;;;;;;8.33;4.43;;;;;;;;;;5046771;28;20206;-73
2022/07/30 07:00:50;;;;;;;9.30;5.00;;;;;;;;;;5048180;28;20206;-73
2022/07/30 07:03:18;;;;;;;13.97;5.87;;;;;;;;;;5042727;28;20202;-72
2022/07/30 07:05:45;;;;;;;8.73;5.23;;;;;;;;;;5042195;28;20769;-72
2022/07/30 07:08:13;;;;;;;10.57;6.00;;;;;;;;;;5047520;28;20203;-73
2022/07/30 07:10:40;;;;;;;11.03;5.37;;;;;;;;;;5044175;28;20218;-72
2022/07/30 07:13:07;;;;;;;13.23;5.43;;;;;;;;;;5043077;28;20285;-73
2022/07/30 07:15:35;;;;;;;11.43;5.50;;;;;;;;;;5040980;28;20223;-73
2022/07/30 07:18:02;;;;;;;9.43;5.40;;;;;;;;;;5042789;28;20298;-73
2022/07/30 07:20:29;;;;;;;11.67;5.00;;;;;;;;;;5038762;28;20269;-72
2022/07/30 07:22:56;;;;;;;7.83;4.90;;;;;;;;;;5038470;28;20224;-73
2022/07/30 07:25:25;;;;;;;13.03;5.20;;;;;;;;;;5035398;28;20579;-73
2022/07/30 07:27:52;;;;;;;12.00;4.80;;;;;;;;;;5037947;28;20680;-73
2022/07/30 07:30:19;;;;;;;7.50;5.00;;;;;;;;;;5034914;28;20681;-73
2022/07/30 07:32:46;;;;;;;9.20;5.53;;;;;;;;;;5037436;28;20203;-73
2022/07/30 07:35:13;;;;;;;11.17;5.57;;;;;;;;;;5035495;28;20199;-72
2022/07/30 07:37:41;;;;;;;11.07;5.10;;;;;;;;;;5039097;28;20207;-72
2022/07/30 07:40:08;;;;;;;8.60;5.10;;;;;;;;;;5035049;28;20334;-73
2022/07/30 07:42:37;;;;;;;8.80;4.80;;;;;;;;;;5039230;28;20199;-71
2022/07/30 07:45:04;;;;;;;12.53;4.27;;;;;;;;;;5041396;28;20822;-73
2022/07/30 07:47:31;;;;;;;9.70;4.60;;;;;;;;;;5042094;28;20292;-73
2022/07/30 07:49:58;;;;;;;14.77;4.50;;;;;;;;;;5039243;28;20203;-73
2022/07/30 07:52:26;;;;;;;8.10;4.13;;;;;;;;;;5041986;28;20695;-73
2022/07/30 07:54:53;;;;;;;12.57;4.03;;;;;;;;;;5041624;28;20207;-73
2022/07/30 07:57:20;;;;;;;9.20;4.17;;;;;;;;;;5038314;28;20227;-73
2022/07/30 07:59:50;;;;;;;7.33;3.80;;;;;;;;;;5039888;28;20293;-73
2022/07/30 08:02:17;;;;;;;11.20;3.60;;;;;;;;;;5041829;28;20199;-74
2022/07/30 08:04:45;;;;;;;8.70;3.75;;;;;;;;;;5040572;28;20215;-74
2022/07/30 08:07:12;;;;;;;13.97;3.63;;;;;;;;;;5040026;28;20561;-73
2022/07/30 08:09:39;;;;;;;8.40;2.85;;;;;;;;;;5039421;28;20229;-74
2022/07/30 08:12:07;;;;;;;6.68;3.45;;;;;;;;;;5042232;28;20676;-73
2022/07/30 08:14:34;;;;;;;6.95;2.95;;;;;;;;;;5038769;28;20230;-73
2022/07/30 08:17:03;;;;;;;8.80;3.42;;;;;;;;;;5039958;28;20735;-74
2022/07/30 08:19:30;;;;;;;7.20;2.80;;;;;;;;;;5037676;28;20199;-73
2022/07/30 08:22:09;;;;;;;8.10;2.73;;;;;;;;;;5035434;28;20672;-74
2022/07/30 08:24:43;;;;;;;6.00;3.13;;;;;;;;;;5036364;28;20231;-73
2022/07/30 08:27:16;;;;;;;8.10;3.10;;;;;;;;;;5041692;28;20355;-72
2022/07/30 08:29:43;;;;;;;9.83;3.70;;;;;;;;;;5044309;28;20207;-74
2022/07/30 08:32:12;;;;;;;12.40;3.77;;;;;;;;;;5040641;28;20940;-74
2022/07/30 08:34:39;;;;;;;8.97;4.07;;;;;;;;;;5040324;28;20203;-74
2022/07/30 08:37:06;;;;;;;10.23;3.70;;;;;;;;;;5038933;28;20245;-74
2022/07/30 08:39:34;;;;;;;13.27;3.47;;;;;;;;;;5044660;28;20240;-73
2022/07/30 08:42:02;;;;;;;8.80;3.57;;;;;;;;;;5038302;28;20751;-74
2022/07/30 08:44:30;;;;;;;14.07;3.97;;;;;;;;;;5038578;28;20224;-73
2022/07/30 08:46:57;;;;;;;8.10;3.47;;;;;;;;;;5036457;28;20246;-73
2022/07/30 08:49:26;;;;;;;10.03;3.57;;;;;;;;;;5038419;28;20203;-72
2022/07/30 08:51:54;;;;;;;8.27;3.53;;;;;;;;;;5035871;28;20287;-74
2022/07/30 08:54:21;;;;;;;9.37;3.50;;;;;;;;;;5037132;28;20202;-73
2022/07/30 08:56:49;;;;;;;16.40;3.90;;;;;;;;;;5040604;28;20222;-74
2022/07/30 08:59:17;;;;;;;7.37;4.20;;;;;;;;;;5041616;28;20203;-75
2022/07/30 09:01:44;;;;;;;9.47;4.20;;;;;;;;;;5042760;28;20501;-74
2022/07/30 09:04:13;;;;;;;9.87;3.77;;;;;;;;;;5039428;28;20202;-73
2022/07/30 09:06:41;;;;;;;10.20;4.40;;;;;;;;;;5039146;28;20256;-73
2022/07/30 09:09:08;;;;;;;12.80;3.53;;;;;;;;;;5037118;28;20301;-74
2022/07/30 09:11:36;;;;;;;7.23;3.43;;;;;;;;;;5036386;28;20577;-73
2022/07/30 09:14:09;;;;;;;10.97;4.10;;;;;;;;;;5041300;28;20206;-73
2022/07/30 09:16:36;;;;;;;11.37;4.33;;;;;;;;;;5040468;28;20611;-73
2022/07/30 09:19:12;;;;;;;9.70;3.53;;;;;;;;;;5037517;28;20210;-74
2022/07/30 09:21:39;;;;;;;11.17;3.43;;;;;;;;;;5032045;28;20216;-74
2022/07/30 09:24:08;;;;;;;6.77;3.50;;;;;;;;;;5033620;28;20209;-73
2022/07/30 09:26:52;;;;;;;11.40;4.03;;;;;;;;;;5040912;28;20308;-73
2022/07/30 09:29:20;;;;;;;6.27;3.17;;;;;;;;;;5037106;28;20284;-74
2022/07/30 09:31:53;;;;;;;9.83;3.50;;;;;;;;;;5040634;28;20211;-74
2022/07/30 09:34:25;;;;;;;8.60;4.07;;;;;;;;;;5035322;28;20207;-73
2022/07/30 09:36:52;;;;;;;8.30;3.20;;;;;;;;;;5031857;28;20390;-73
2022/07/30 09:39:30;;;;;;;8.07;3.53;;;;;;;;;;5029131;28;20253;-75
2022/07/30 09:41:57;;;;;;;12.03;3.73;;;;;;;;;;5037122;28;20232;-73
2022/07/30 09:44:24;;;;;;;9.60;4.30;;;;;;;;;;5038051;28;20205;-73
2022/07/30 09:46:51;;;;;;;12.67;4.60;;;;;;;;;;5046225;28;20222;-73
2022/07/30 09:49:20;;;;;;;8.93;3.70;;;;;;;;;;5039668;28;20334;-73
2022/07/30 09:51:47;;;;;;;8.90;3.93;;;;;;;;;;5042477;28;20206;-73
2022/07/30 09:54:15;;;;;;;13.97;4.20;;;;;;;;;;5045058;28;20205;-74
2022/07/30 09:56:44;;;;;;;11.37;4.50;;;;;;;;;;5041306;28;20229;-74
2022/07/30 09:59:26;;;;;;;11.93;4.00;;;;;;;;;;5039497;28;20201;-73
2022/07/30 10:01:54;;;;;;;11.50;5.20;;;;;;;;;;5038500;28;20203;-74
2022/07/30 10:04:24;;;;;;;10.07;5.87;;;;;;;;;;5040315;28;20208;-73
2022/07/30 10:06:52;;;;;;;11.53;4.23;;;;;;;;;;5040353;28;20250;-73
2022/07/30 10:09:25;;;;;;;11.20;4.53;;;;;;;;;;5047100;28;20202;-73
2022/07/30 10:11:54;;;;;;;9.43;4.47;;;;;;;;;;5043844;28;20546;-73
2022/07/30 10:14:23;;;;;;;9.80;6.07;;;;;;;;;;5043973;28;20199;-74
2022/07/30 10:16:50;;;;;;;14.67;5.37;;;;;;;;;;5044186;28;20230;-73
2022/07/30 10:19:18;;;;;;;6.27;4.33;;;;;;;;;;5040195;28;20207;-73
2022/07/30 10:21:45;;;;;;;8.57;4.70;;;;;;;;;;5045449;28;20221;-74
2022/07/30 10:24:13;;;;;;;9.10;4.70;;;;;;;;;;5036536;28;20576;-73
2022/07/30 10:26:40;;;;;;;5.93;3.77;;;;;;;;;;5038762;28;20238;-73
2022/07/30 10:29:09;;;;;;;7.40;4.87;;;;;;;;;;5041296;28;20199;-73
2022/07/30 10:31:36;;;;;;;9.70;4.90;;;;;;;;;;5045951;28;20212;-73
2022/07/30 10:34:03;;;;;;;12.63;4.83;;;;;;;;;;5039013;28;20672;-74
2022/07/30 10:36:31;;;;;;;13.27;6.10;;;;;;;;;;5041778;28;20227;-73
2022/07/30 10:38:58;;;;;;;10.43;4.63;;;;;;;;;;5038993;28;20281;-74
2022/07/30 10:41:33;;;;;;;12.27;4.63;;;;;;;;;;5034504;28;20214;-73
2022/07/30 10:44:08;;;;;;;16.27;4.40;;;;;;;;;;5040351;28;21610;-73
2022/07/30 10:46:44;;;;;;;9.13;4.90;;;;;;;;;;5036564;28;20731;-73
2022/07/30 10:49:12;;;;;;;12.23;4.37;;;;;;;;;;5041751;28;20309;-74
2022/07/30 10:51:46;;;;;;;14.67;5.17;;;;;;;;;;5041237;28;20199;-74
2022/07/30 10:54:37;;;;;;;8.47;4.90;;;;;;;;;;5039322;28;20293;-73
2022/07/30 10:57:05;;;;;;;10.27;5.40;;;;;;;;;;5027684;28;20231;-73
2022/07/30 10:59:47;;;;;;;12.90;4.97;;;;;;;;;;5044414;28;20735;-73
2022/07/30 11:02:16;;;;;;;10.03;5.80;;;;;;;;;;5038652;28;20765;-73
2022/07/30 11:04:43;;;;;;;9.93;4.87;;;;;;;;;;5037984;28;20207;-73
2022/07/30 11:07:30;;;;;;;9.10;4.90;;;;;;;;;;5039022;28;20219;-73
2022/07/30 11:09:59;;;;;;;6.30;4.57;;;;;;;;;;5037995;28;20212;-73
2022/07/30 11:12:46;;;;;;;7.90;4.00;;;;;;;;;;5042257;28;20195;-73
2022/07/30 11:15:13;;;;;;;10.30;5.63;;;;;;;;;;5037851;28;20338;-73
2022/07/30 11:18:13;;;;;;;8.07;5.03;;;;;;;;;;5039305;28;20298;-73
2022/07/30 11:20:42;;;;;;;11.70;5.23;;;;;;;;;;4979561;28;20244;-73
2022/07/30 11:23:11;;;;;;;13.23;4.83;;;;;;;;;;4976642;28;20222;-73
2022/07/30 11:25:43;;;;;;;9.47;5.00;;;;;;;;;;5006605;28;20226;-73
2022/07/30 11:28:25;;;;;;;12.90;5.17;;;;;;;;;;5037767;28;20211;-72
2022/07/30 11:30:54;;;;;;;7.57;4.80;;;;;;;;;;5036620;28;20207;-73
2022/07/30 11:33:25;;;;;;;10.37;5.30;;;;;;;;;;5036878;28;20222;-73
2022/07/30 11:36:07;;;;;;;8.50;4.70;;;;;;;;;;5041106;28;20219;-73
2022/07/30 11:38:54;;;;;;;9.03;4.87;;;;;;;;;;5039749;28;20205;-73
2022/07/30 11:41:21;;;;;;;9.87;4.60;;;;;;;;;;5036898;28;20230;-74
2022/07/30 11:43:49;;;;;;;8.60;4.33;;;;;;;;;;5030244;28;20199;-73
2022/07/30 11:46:21;;;;;;;10.20;5.77;;;;;;;;;;5036491;28;20234;-73
2022/07/30 11:48:56;;;;;;;12.07;4.80;;;;;;;;;;5038544;28;20383;-73
2022/07/30 11:51:25;;;;;;;11.63;4.40;;;;;;;;;;5037852;28;20210;-73
2022/07/30 11:54:02;;;;;;;7.37;4.53;;;;;;;;;;5034786;28;20298;-73
2022/07/30 11:56:29;;;;;;;6.10;3.80;;;;;;;;;;5037329;28;20316;-73
2022/07/30 11:59:01;;;;;;;9.93;4.83;;;;;;;;;;5037890;28;20234;-73
2022/07/30 12:01:29;;;;;;;7.67;4.00;;;;;;;;;;5033973;28;20210;-74
2022/07/30 12:03:57;;;;;;;5.93;3.87;;;;;;;;;;5033456;28;20226;-74
2022/07/30 12:06:25;;;;;;;5.07;3.40;;;;;;;;;;5031837;28;20992;-74
2022/07/30 12:08:53;;;;;;;7.50;3.60;;;;;;;;;;5038508;28;20589;-73
2022/07/30 12:11:20;;;;;;;6.43;3.33;;;;;;;;;;5039617;28;20199;-73
2022/07/30 12:13:55;;;;;;;6.83;3.20;;;;;;;;;;5037788;28;20206;-74
2022/07/30 12:16:22;;;;;;;4.50;3.30;;;;;;;;;;5032665;28;20225;-73
2022/07/30 12:18:50;;;;;;;5.70;3.43;;;;;;;;;;5038585;28;20213;-74
2022/07/30 12:21:17;;;;;;;8.13;3.37;;;;;;;;;;5039561;28;20223;-74
2022/07/30 12:23:54;;;;;;;10.13;3.40;;;;;;;;;;5036289;28;20216;-72
2022/07/30 12:26:23;;;;;;;9.80;3.50;;;;;;;;;;5041257;28;20309;-73
2022/07/30 12:28:50;;;;;;;9.17;3.20;;;;;;;;;;5037112;28;20273;-72
2022/07/30 12:31:18;;;;;;;4.03;2.57;;;;;;;;;;5038319;28;20681;-73
2022/07/30 12:33:45;;;;;;;6.93;2.70;;;;;;;;;;5038502;28;20225;-72
2022/07/30 12:36:24;;;;;;;5.90;3.00;;;;;;;;;;5037217;28;20709;-73
2022/07/30 12:38:53;;;;;;;7.60;2.97;;;;;;;;;;5040612;28;20206;-71
2022/07/30 12:41:20;;;;;;;5.57;2.70;;;;;;;;;;5038584;28;20203;-73
2022/07/30 12:43:49;;;;;;;7.53;2.97;;;;;;;;;;5039514;28;20205;-73
2022/07/30 12:46:19;;;;;;;5.83;3.10;;;;;;;;;;5041721;28;20280;-73
2022/07/30 12:48:50;;;;;;;6.87;3.00;;;;;;;;;;5037371;28;20211;-72
2022/07/30 12:51:17;;;;;;;6.70;3.17;;;;;;;;;;5037869;28;20218;-73
2022/07/30 12:53:44;;;;;;;8.30;2.87;;;;;;;;;;5042386;28;20832;-73
2022/07/30 12:56:14;;;;;;;13.77;3.23;;;;;;;;;;5039333;28;20302;-73
2022/07/30 12:58:41;;;;;;;6.87;3.20;;;;;;;;;;5043499;28;20200;-72
2022/07/30 13:01:09;;;;;;;7.90;2.90;;;;;;;;;;5042867;28;20208;-73
2022/07/30 13:03:40;;;;;;;6.23;2.80;;;;;;;;;;5042360;28;20229;-74
2022/07/30 13:06:14;;;;;;;9.13;2.70;;;;;;;;;;5044325;28;20230;-74
2022/07/30 13:08:48;;;;;;;6.00;2.70;;;;;;;;;;5042741;28;20246;-72
2022/07/30 13:11:17;;;;;;;9.13;2.93;;;;;;;;;;5042177;28;20198;-70
2022/07/30 13:13:45;;;;;;;5.57;2.80;;;;;;;;;;5039951;28;20203;-72
2022/07/30 13:16:12;;;;;;;8.37;3.00;;;;;;;;;;5035410;28;20297;-71
2022/07/30 13:18:39;;;;;;;8.53;2.90;;;;;;;;;;5030855;28;20211;-72
2022/07/30 13:21:08;;;;;;;5.37;2.57;;;;;;;;;;5034505;28;20207;-72
2022/07/30 13:23:35;;;;;;;8.53;2.77;;;;;;;;;;5036990;28;20230;-72
2022/07/30 13:26:03;;;;;;;5.17;2.67;;;;;;;;;;5034528;28;20541;-72
2022/07/30 13:28:32;;;;;;;5.47;2.80;;;;;;;;;;5030735;28;21235;-72
2022/07/30 13:30:59;;;;;;;9.03;2.67;;;;;;;;;;5035057;28;20224;-71
2022/07/30 13:33:26;;;;;;;8.77;2.60;;;;;;;;;;5039174;28;20209;-73
2022/07/30 13:35:54;;;;;;;5.87;3.20;;;;;;;;;;5033961;28;20226;-73
2022/07/30 13:38:21;;;;;;;7.53;2.97;;;;;;;;;;5032537;28;20694;-73
2022/07/30 13:40:48;;;;;;;4.73;3.23;;;;;;;;;;5035499;28;20211;-73
2022/07/30 13:43:15;;;;;;;6.27;3.10;;;;;;;;;;5031893;28;20211;-73
2022/07/30 13:45:44;;;;;;;5.30;3.30;;;;;;;;;;5037888;28;20276;-73
2022/07/30 13:48:11;;;;;;;8.70;3.53;;;;;;;;;;5033965;28;20904;-74
2022/07/30 13:50:38;;;;;;;9.03;3.30;;;;;;;;;;5029921;28;20389;-73
2022/07/30 13:53:06;;;;;;;5.37;3.00;;;;;;;;;;5036142;28;20207;-72
2022/07/30 13:55:33;;;;;;;12.33;3.47;;;;;;;;;;5036324;28;20233;-73
2022/07/30 13:58:00;;;;;;;5.03;3.17;;;;;;;;;;5036978;28;20282;-72
2022/07/30 14:00:31;;;;;;;6.73;3.23;;;;;;;;;;5032766;28;20536;-73
2022/07/30 14:03:00;;;;;;;12.60;3.40;;;;;;;;;;5033855;28;20217;-71
2022/07/30 14:05:27;;;;;;;6.20;3.23;;;;;;;;;;5038034;28;20226;-72
2022/07/30 14:07:54;;;;;;;9.93;3.07;;;;;;;;;;5034888;28;20318;-70
2022/07/30 14:10:22;;;;;;;7.93;3.20;;;;;;;;;;5036277;28;20210;-71
2022/07/30 14:12:49;;;;;;;9.90;3.20;;;;;;;;;;5030861;28;20304;-71
2022/07/30 14:15:17;;;;;;;7.17;3.20;;;;;;;;;;5032322;28;20195;-72
2022/07/30 14:17:44;;;;;;;5.10;2.87;;;;;;;;;;5032863;28;20289;-71
2022/07/30 14:20:13;;;;;;;6.33;2.57;;;;;;;;;;5034730;28;20203;-70
2022/07/30 14:22:40;;;;;;;6.40;3.10;;;;;;;;;;5035590;28;20215;-71
2022/07/30 14:25:08;;;;;;;5.73;2.67;;;;;;;;;;5033244;28;21264;-70
2022/07/30 14:27:35;;;;;;;8.57;2.63;;;;;;;;;;5037065;28;20701;-71
2022/07/30 14:30:02;;;;;;;5.97;2.90;;;;;;;;;;5033398;28;20257;-71
2022/07/30 14:32:29;;;;;;;9.83;3.00;;;;;;;;;;5030648;28;20632;-72
2022/07/30 14:34:56;;;;;;;6.97;2.83;;;;;;;;;;5035848;28;20211;-72
2022/07/30 14:37:25;;;;;;;7.43;2.50;;;;;;;;;;5034628;28;20239;-70
2022/07/30 14:39:52;;;;;;;6.10;2.63;;;;;;;;;;5033608;28;20691;-71
2022/07/30 14:42:19;;;;;;;5.20;2.70;;;;;;;;;;5036828;28;20210;-71
2022/07/30 14:44:47;;;;;;;6.33;2.33;;;;;;;;;;5031349;28;20249;-70
2022/07/30 14:47:14;;;;;;;9.87;2.57;;;;;;;;;;5025221;28;20691;-70
2022/07/30 14:49:41;;;;;;;4.57;2.67;;;;;;;;;;5029604;28;20207;-69
2022/07/30 14:52:08;;;;;;;4.47;2.53;;;;;;;;;;5029009;28;20199;-71